Time;durP1;ratioP1;P1;durP2;ratioP2;P2;SDS_P1;SDS_P2;PMS_P1;PMS_P2;Temp;Humidity;BMP_temperature;BMP_pressure;BME280_temperature;BME280_humidity;BME280_pressure;Samples;Min_cycle;Max_cycle;Signal;HPM_P1;HPM_P2
2021/08/18 00:01:27;;;;;;;;;3.50;3.50;;;;;18.53;100.00;101797.03;5119840;27;45728;-70
2021/08/18 00:03:52;;;;;;;;;4.50;4.00;;;;;18.54;100.00;101796.13;5120155;27;45216;-70
2021/08/18 00:06:18;;;;;;;;;4.75;4.00;;;;;18.56;100.00;101796.13;5120199;27;45361;-70
2021/08/18 00:08:45;;;;;;;;;5.00;3.50;;;;;18.53;100.00;101790.88;5120232;27;45460;-69
2021/08/18 00:14:33;;;;;;;;;4.50;4.00;;;;;18.54;100.00;101793.47;5120116;27;45379;-70
2021/08/18 00:17:00;;;;;;;;;4.00;3.00;;;;;18.58;100.00;101795.16;5101648;27;46469;-70
2021/08/18 00:19:25;;;;;;;;;4.50;4.00;;;;;18.52;100.00;101789.16;5119586;27;45241;-70
2021/08/18 00:21:50;;;;;;;;;1.75;1.25;;;;;18.56;100.00;101789.03;5120109;27;45315;-70
2021/08/18 00:24:16;;;;;;;;;5.25;4.00;;;;;18.54;100.00;101790.84;5120116;27;45191;-70
2021/08/18 00:26:41;;;;;;;;;4.25;4.00;;;;;18.53;100.00;101791.75;5119478;27;47027;-70
2021/08/18 00:29:07;;;;;;;;;4.75;3.50;;;;;18.53;100.00;101782.94;5119953;27;45335;-69
2021/08/18 00:31:32;;;;;;;;;5.25;3.75;;;;;18.47;100.00;101777.84;5119636;27;45590;-67
2021/08/18 00:33:58;;;;;;;;;4.00;4.00;;;;;18.50;100.00;101778.63;5119902;27;45435;-69
2021/08/18 00:36:23;;;;;;;;;4.25;4.25;;;;;18.53;100.00;101789.09;5119366;27;46509;-69
2021/08/18 00:38:48;;;;;;;;;4.25;4.25;;;;;18.52;100.00;101783.88;5119378;27;45297;-69
2021/08/18 00:44:35;;;;;;;;;3.25;3.25;;;;;18.35;100.00;101761.47;5119689;27;45302;-70
2021/08/18 00:47:03;;;;;;;;;4.25;4.25;;;;;18.40;100.00;101765.75;5119134;27;47250;-70
2021/08/18 00:49:28;;;;;;;;;4.25;3.25;;;;;18.46;100.00;101786.72;5119312;27;45375;-69
2021/08/18 00:51:55;;;;;;;;;5.50;4.00;;;;;18.49;100.00;101787.47;5119468;27;45361;-68
2021/08/18 00:54:21;;;;;;;;;4.75;4.75;;;;;18.48;100.00;101776.94;5119581;27;45413;-69
2021/08/18 00:56:47;;;;;;;;;7.50;4.50;;;;;18.53;100.00;101785.59;5118420;27;45510;-70
2021/08/18 00:59:13;;;;;;;;;4.00;3.50;;;;;18.50;100.00;101775.97;5118957;27;45323;-69
2021/08/18 01:01:40;;;;;;;;;4.00;4.00;;;;;18.48;100.00;101783.09;5119434;27;45371;-70
2021/08/18 01:04:05;;;;;;;;;5.00;3.00;;;;;18.51;100.00;101775.06;5119626;27;45320;-69
2021/08/18 01:06:34;;;;;;;;;6.00;3.25;;;;;18.46;100.00;101768.19;5118876;27;47069;-70
2021/08/18 01:09:00;;;;;;;;;4.00;3.75;;;;;18.46;100.00;101778.78;5119009;27;45608;-69
2021/08/18 01:11:25;;;;;;;;;6.25;3.00;;;;;18.47;100.00;101776.06;5119441;27;45302;-69
2021/08/18 01:13:51;;;;;;;;;2.00;2.00;;;;;18.43;100.00;101774.44;5119108;27;45352;-69
2021/08/18 01:16:17;;;;;;;;;3.00;3.00;;;;;18.43;100.00;101778.88;5118794;27;46988;-69
2021/08/18 01:18:43;;;;;;;;;3.00;3.00;;;;;18.34;100.00;101757.09;5118855;27;45233;-69
2021/08/18 01:21:09;;;;;;;;;4.75;4.00;;;;;18.44;100.00;101778.81;5118830;27;45326;-69
2021/08/18 01:23:34;;;;;;;;;3.50;2.75;;;;;18.41;100.00;101768.34;5118882;27;45251;-70
2021/08/18 01:29:21;;;;;;;;;3.25;2.75;;;;;18.33;100.00;101765.94;5118707;27;45422;-70
2021/08/18 01:31:46;;;;;;;;;3.25;3.00;;;;;18.34;100.00;101758.88;5118659;27;45333;-70
2021/08/18 01:34:12;;;;;;;;;3.00;3.00;;;;;18.31;100.00;101753.66;5118948;27;45334;-69
2021/08/18 01:36:38;;;;;;;;;2.25;2.25;;;;;18.35;100.00;101763.25;5118673;27;46610;-71
2021/08/18 01:39:05;;;;;;;;;3.00;3.00;;;;;18.39;100.00;101762.22;5118421;27;45206;-70
2021/08/18 01:41:31;;;;;;;;;5.00;3.00;;;;;18.40;100.00;101766.59;5118660;27;45274;-70
2021/08/18 01:43:57;;;;;;;;;3.50;3.00;;;;;18.36;100.00;101757.91;5118670;27;45269;-70
2021/08/18 01:46:23;;;;;;;;;4.00;3.00;;;;;18.40;100.00;101763.09;5118373;27;47254;-70
2021/08/18 01:48:48;;;;;;;;;4.00;3.00;;;;;18.36;100.00;101757.03;5118360;27;45682;-70
2021/08/18 01:51:13;;;;;;;;;3.50;2.00;;;;;18.39;100.00;101756.09;5118850;27;45322;-70
2021/08/18 01:53:46;;;;;;;;;2.00;2.00;;;;;18.42;100.00;101770.06;5118724;27;45281;-70
2021/08/18 01:59:33;;;;;;;;;2.00;2.00;;;;;18.31;100.00;101751.00;5117453;27;45470;-70
2021/08/18 02:01:58;;;;;;;;;3.00;3.00;;;;;18.31;100.00;101762.44;5118200;27;45458;-69
2021/08/18 02:04:23;;;;;;;;;3.00;2.00;;;;;18.30;100.00;101755.44;5118250;27;45221;-70
2021/08/18 02:06:49;;;;;;;;;5.00;3.00;;;;;18.25;100.00;101749.41;5117919;27;46187;-70
2021/08/18 02:09:14;;;;;;;;;4.00;3.00;;;;;18.20;100.00;101745.19;5120845;27;45366;-69
2021/08/18 02:11:39;;;;;;;;;3.50;3.00;;;;;18.28;100.00;101759.03;5121809;27;45279;-70
2021/08/18 02:14:05;;;;;;;;;6.00;3.50;;;;;18.24;100.00;101749.47;5122079;27;45347;-70
2021/08/18 02:16:30;;;;;;;;;2.00;2.00;;;;;18.25;100.00;101748.56;5121998;27;45347;-70
2021/08/18 02:18:55;;;;;;;;;4.25;3.00;;;;;18.20;100.00;101748.69;5121739;27;45347;-70
2021/08/18 02:21:21;;;;;;;;;2.75;2.75;;;;;18.21;100.00;101749.56;5122162;27;45246;-70
2021/08/18 02:23:46;;;;;;;;;3.25;3.00;;;;;18.25;100.00;101760.00;5121840;27;45306;-70
2021/08/18 02:29:33;;;;;;;;;3.25;2.00;;;;;18.22;100.00;101743.38;5121591;27;45279;-70
2021/08/18 02:31:59;;;;;;;;;3.00;3.00;;;;;18.21;100.00;101741.63;5121817;27;45365;-71
2021/08/18 02:34:24;;;;;;;;;3.25;3.25;;;;;18.17;100.00;101735.56;5122111;27;45364;-70
2021/08/18 02:36:49;;;;;;;;;2.00;2.00;;;;;18.21;100.00;101736.34;5121229;27;45470;-70
2021/08/18 02:39:15;;;;;;;;;3.00;2.50;;;;;18.25;100.00;101746.78;5121401;27;45283;-69
2021/08/18 02:41:40;;;;;;;;;3.75;3.00;;;;;18.20;100.00;101737.25;5121774;27;45425;-69
2021/08/18 02:44:06;;;;;;;;;3.00;3.00;;;;;18.21;100.00;101736.34;5121561;27;45276;-70
2021/08/18 02:46:31;;;;;;;;;6.25;4.50;;;;;18.22;100.00;101736.28;5121213;27;46563;-68
2021/08/18 02:48:56;;;;;;;;;4.00;2.00;;;;;18.25;100.00;101737.97;5121311;27;45284;-69
2021/08/18 02:51:22;;;;;;;;;3.75;3.00;;;;;18.21;100.00;101734.56;5121266;27;45272;-70
2021/08/18 02:53:47;;;;;;;;;3.75;3.75;;;;;18.18;100.00;101725.88;5121922;27;45302;-69
2021/08/18 02:59:34;;;;;;;;;4.75;3.75;;;;;18.21;100.00;101739.84;5120679;27;45239;-69
2021/08/18 03:01:59;;;;;;;;;2.50;2.50;;;;;18.13;100.00;101722.50;5121211;27;45343;-69
2021/08/18 03:04:25;;;;;;;;;3.00;3.00;;;;;18.19;100.00;101719.66;5121277;27;45361;-70
2021/08/18 03:06:52;;;;;;;;;2.75;2.75;;;;;18.20;100.00;101727.53;5121140;27;45392;-70
2021/08/18 03:09:18;;;;;;;;;3.00;3.00;;;;;18.22;100.00;101738.06;5120853;27;45849;-69
2021/08/18 03:11:43;;;;;;;;;4.00;4.00;;;;;18.22;100.00;101732.78;5121276;27;45340;-69
2021/08/18 03:14:08;;;;;;;;;3.00;2.00;;;;;18.21;100.00;101733.69;5121418;27;45355;-68
2021/08/18 03:16:34;;;;;;;;;3.00;3.00;;;;;18.21;100.00;101728.41;5120676;27;46188;-69
2021/08/18 03:19:02;;;;;;;;;3.00;3.00;;;;;18.13;100.00;101728.66;5120723;27;45388;-69
2021/08/18 03:21:27;;;;;;;;;3.25;3.25;;;;;18.24;100.00;101731.81;5120584;27;45319;-69
2021/08/18 03:23:53;;;;;;;;;4.00;3.00;;;;;18.25;100.00;101743.25;5121150;27;45447;-69
2021/08/18 03:29:39;;;;;;;;;5.75;4.75;;;;;18.21;100.00;101726.63;5120671;27;45583;-70
2021/08/18 03:32:05;;;;;;;;;6.00;4.75;;;;;18.25;100.00;101735.34;5120623;27;45386;-66
2021/08/18 03:34:30;;;;;;;;;5.00;3.50;;;;;18.25;100.00;101722.97;5120866;27;45392;-69
2021/08/18 03:36:56;;;;;;;;;5.75;5.00;;;;;18.23;100.00;101726.59;5120764;27;45422;-69
2021/08/18 03:39:24;;;;;;;;;2.25;2.25;;;;;18.25;100.00;101732.69;5120667;27;45268;-69
2021/08/18 03:41:50;;;;;;;;;3.00;3.00;;;;;18.27;100.00;101736.16;5120595;27;45342;-69
2021/08/18 03:44:15;;;;;;;;;3.75;3.75;;;;;18.19;100.00;101723.19;5120563;27;45355;-69
2021/08/18 03:46:41;;;;;;;;;4.25;3.75;;;;;18.24;100.00;101726.53;5120157;27;45479;-68
2021/08/18 03:49:06;;;;;;;;;4.00;4.00;;;;;18.24;100.00;101730.97;5120290;27;45220;-68
2021/08/18 03:51:31;;;;;;;;;2.00;2.00;;;;;18.23;100.00;101734.53;5120307;27;45208;-69
2021/08/18 03:53:57;;;;;;;;;6.25;5.00;;;;;18.15;100.00;101718.03;5120836;27;45421;-69
2021/08/18 03:59:43;;;;;;;;;5.25;3.75;;;;;18.14;100.00;101719.81;5119693;27;45294;-68
2021/08/18 04:02:09;;;;;;;;;3.00;3.00;;;;;18.16;100.00;101722.41;5120472;27;45267;-69
2021/08/18 04:04:34;;;;;;;;;4.75;4.75;;;;;18.13;100.00;101719.84;5120099;27;45406;-69
2021/08/18 04:06:59;;;;;;;;;6.25;4.25;;;;;18.11;100.00;101719.03;5119951;27;45983;-69
2021/08/18 04:09:25;;;;;;;;;5.25;4.00;;;;;18.16;100.00;101728.56;5120013;27;45327;-70
2021/08/18 04:11:50;;;;;;;;;5.00;4.00;;;;;18.13;100.00;101726.00;5119980;27;45343;-69
2021/08/18 04:14:15;;;;;;;;;7.00;6.00;;;;;18.06;100.00;101717.38;5120067;27;45246;-69
2021/08/18 04:16:41;;;;;;;;;4.50;4.50;;;;;18.12;100.00;101726.06;5119673;27;46406;-69
2021/08/18 04:19:07;;;;;;;;;3.00;3.00;;;;;18.13;100.00;101733.94;5119827;27;45369;-69
2021/08/18 04:21:32;;;;;;;;;4.00;4.00;;;;;18.13;100.00;101725.16;5119871;27;45201;-70
2021/08/18 04:23:57;;;;;;;;;4.00;4.00;;;;;18.06;100.00;101717.38;5120080;27;45626;-69
2021/08/18 04:29:45;;;;;;;;;6.00;6.00;;;;;18.06;100.00;101716.50;5119915;27;45511;-69
2021/08/18 04:32:10;;;;;;;;;4.00;4.00;;;;;18.00;100.00;101712.28;5119661;27;45258;-68
2021/08/18 04:34:35;;;;;;;;;6.00;4.00;;;;;17.94;100.00;101709.81;5120206;27;45125;-69
2021/08/18 04:37:01;;;;;;;;;4.25;4.25;;;;;18.10;100.00;101735.78;5119410;27;46459;-68
2021/08/18 04:39:26;;;;;;;;;5.50;5.00;;;;;18.03;100.00;101727.19;5101128;27;45288;-68
2021/08/18 04:41:51;;;;;;;;;5.50;4.50;;;;;18.09;100.00;101734.06;5119636;27;45221;-69
2021/08/18 04:44:17;;;;;;;;;5.75;4.50;;;;;18.10;100.00;101731.38;5119536;27;45244;-69
2021/08/18 04:46:42;;;;;;;;;5.75;5.00;;;;;18.12;100.00;101736.63;5119163;27;46494;-69
2021/08/18 04:49:07;;;;;;;;;5.25;5.25;;;;;18.08;100.00;101735.81;5119444;27;45245;-70
2021/08/18 04:51:33;;;;;;;;;6.50;5.00;;;;;18.09;100.00;101736.69;5119486;27;45408;-71
2021/08/18 04:53:58;;;;;;;;;10.00;6.00;;;;;18.09;100.00;101740.19;5119584;27;45407;-71
2021/08/18 04:59:45;;;;;;;;;4.50;4.25;;;;;18.05;100.00;101736.78;5119184;27;45257;-70
2021/08/18 05:02:10;;;;;;;;;5.50;5.00;;;;;17.93;100.00;101716.03;5119623;27;45275;-70
2021/08/18 05:04:37;;;;;;;;;3.00;3.00;;;;;18.00;100.00;101730.78;5119486;27;45278;-71
2021/08/18 05:07:03;;;;;;;;;5.25;4.00;;;;;18.04;100.00;101735.06;5119136;27;46196;-69
2021/08/18 05:09:28;;;;;;;;;6.00;6.00;;;;;18.01;100.00;101726.34;5119465;27;45353;-69
2021/08/18 05:11:54;;;;;;;;;3.75;3.75;;;;;18.01;100.00;101727.22;5119469;27;45358;-68
2021/08/18 05:14:21;;;;;;;;;5.25;4.00;;;;;18.00;100.00;101730.78;5119345;27;45333;-69
2021/08/18 05:16:47;;;;;;;;;5.50;5.00;;;;;18.01;100.00;101729.88;5118915;27;47050;-70
2021/08/18 05:19:12;;;;;;;;;7.00;4.00;;;;;17.90;100.00;101715.25;5119288;27;45303;-69
2021/08/18 05:21:37;;;;;;;;;4.25;4.25;;;;;18.01;100.00;101734.28;5119339;27;45393;-69
2021/08/18 05:24:03;;;;;;;;;5.50;5.50;;;;;18.04;100.00;101734.19;5118957;27;45500;-70
2021/08/18 05:29:50;;;;;;;;;4.75;4.50;;;;;18.05;100.00;101750.00;5118696;27;45376;-69
2021/08/18 05:32:15;;;;;;;;;5.50;4.00;;;;;18.08;100.00;101740.25;5118875;27;45342;-69
2021/08/18 05:34:41;;;;;;;;;4.75;4.00;;;;;18.06;100.00;101732.38;5119470;27;45439;-68
2021/08/18 05:37:06;;;;;;;;;5.50;4.25;;;;;17.99;100.00;101731.69;5118566;27;46559;-70
2021/08/18 05:39:31;;;;;;;;;11.50;9.50;;;;;18.00;100.00;101736.06;5118903;27;45314;-70
2021/08/18 05:41:57;;;;;;;;;7.25;7.00;;;;;18.09;100.00;101750.78;5119063;27;45341;-71
2021/08/18 05:44:22;;;;;;;;;5.00;5.00;;;;;18.09;100.00;101741.97;5118506;27;45323;-70
2021/08/18 05:46:47;;;;;;;;;5.25;5.00;;;;;18.09;100.00;101737.56;5118577;27;46165;-69
2021/08/18 05:49:20;;;;;;;;;6.00;6.00;;;;;18.18;100.00;101747.88;5118514;27;45209;-70
2021/08/18 05:51:50;;;;;;;;;4.75;4.50;;;;;18.19;100.00;101751.38;5118605;27;45314;-70
2021/08/18 05:54:16;;;;;;;;;4.75;4.50;;;;;18.24;100.00;101746.81;5118755;27;45271;-69
2021/08/18 06:00:05;;;;;;;;;5.50;4.50;;;;;18.29;100.00;101751.06;5117710;27;45259;-68
2021/08/18 06:02:33;;;;;;;;;2.00;2.00;;;;;18.28;100.00;101745.81;5118261;27;45289;-71
2021/08/18 06:04:58;;;;;;;;;6.75;5.00;;;;;18.33;100.00;101754.47;5118475;27;45338;-70
2021/08/18 06:07:24;;;;;;;;;5.00;4.00;;;;;18.38;100.00;101749.06;5118255;27;46935;-70
2021/08/18 06:09:49;;;;;;;;;7.00;4.75;;;;;18.34;100.00;101741.22;5118493;27;45409;-70
2021/08/18 06:12:14;;;;;;;;;4.75;4.50;;;;;18.39;100.00;101756.94;5118677;27;45378;-70
2021/08/18 06:14:41;;;;;;;;;5.75;5.00;;;;;18.44;100.00;101749.72;5118768;27;45342;-68
2021/08/18 06:17:06;;;;;;;;;5.50;4.00;;;;;18.57;100.00;101755.53;5118014;27;47384;-70
2021/08/18 06:19:32;;;;;;;;;6.00;6.00;;;;;18.63;100.00;101760.66;5118480;27;45435;-71
2021/08/18 06:21:59;;;;;;;;;5.50;5.00;;;;;18.63;100.00;101747.41;5118196;27;45314;-70
2021/08/18 06:24:29;;;;;;;;;5.75;5.00;;;;;18.71;100.00;101755.09;5118343;27;45204;-69
2021/08/18 06:30:17;;;;;;;;;6.50;6.25;;;;;18.71;100.00;101747.16;5117914;27;45242;-70
2021/08/18 06:32:42;;;;;;;;;6.50;4.50;;;;;18.77;100.00;101753.13;5099673;27;45312;-69
2021/08/18 06:35:08;;;;;;;;;6.25;6.00;;;;;18.76;100.00;101751.38;5100007;27;45280;-69
2021/08/18 06:37:34;;;;;;;;;5.50;5.50;;;;;18.71;100.00;101753.31;5117815;27;46271;-70
2021/08/18 06:39:59;;;;;;;;;5.00;3.00;;;;;18.60;100.00;101728.97;5117793;27;45346;-69
2021/08/18 06:42:25;;;;;;;;;6.00;5.25;;;;;18.72;100.00;101755.06;5117954;27;45309;-68
2021/08/18 06:44:50;;;;;;;;;4.75;4.75;;;;;18.80;100.00;101766.28;5117998;27;45359;-70
2021/08/18 06:47:16;;;;;;;;;5.75;5.00;;;;;18.78;100.00;101759.28;5117756;27;45445;-70
2021/08/18 06:49:43;;;;;;;;;5.00;5.00;;;;;18.80;100.00;101763.63;5117680;27;45528;-69
2021/08/18 06:52:08;;;;;;;;;6.00;5.75;;;;;18.77;100.00;101752.25;5118249;27;45258;-70
2021/08/18 06:54:34;;;;;;;;;6.00;6.00;;;;;18.88;100.00;101761.59;5118451;27;45360;-70
2021/08/18 07:00:21;;;;;;;;;5.25;4.25;;;;;18.98;100.00;101757.72;5120552;27;45653;-70
2021/08/18 07:02:49;;;;;;;;;6.25;4.75;;;;;19.03;100.00;101754.06;5121038;27;45256;-68
2021/08/18 07:05:18;;;;;;;;;6.00;5.00;;;;;19.21;100.00;101764.88;5121328;27;45292;-69
2021/08/18 07:07:44;;;;;;;;;5.75;5.50;;;;;19.26;100.00;101762.97;5121010;27;46373;-69
2021/08/18 07:10:11;;;;;;;;;8.75;6.75;;;;;19.25;100.00;101744.50;5121274;27;45434;-70
2021/08/18 07:12:37;;;;;;;;;6.00;5.00;;;;;19.35;100.00;101750.31;5121104;27;45496;-70
2021/08/18 07:15:04;;;;;;;;;7.25;5.50;;;;;19.43;100.00;101756.22;5121026;27;45540;-70
2021/08/18 07:17:29;;;;;;;;;9.25;6.00;;;;;19.53;100.00;101755.00;5120674;27;46461;-71
2021/08/18 07:19:55;;;;;;;;;7.00;6.75;;;;;19.56;100.00;101744.31;5121169;27;45428;-69
2021/08/18 07:22:20;;;;;;;;;5.75;5.50;;;;;19.64;100.00;101754.63;5121291;27;45266;-70
2021/08/18 07:24:46;;;;;;;;;5.00;4.00;;;;;19.64;100.00;101752.84;5121259;27;45276;-70
2021/08/18 07:27:11;;;;;;;;;4.75;4.00;;;;;19.68;100.00;101762.41;5120663;27;46972;-69
2021/08/18 07:29:37;;;;;;;;;5.50;5.00;;;;;19.63;100.00;101744.94;5120661;27;45244;-71
2021/08/18 07:32:02;;;;;;;;;6.00;6.00;;;;;19.68;100.00;101756.25;5120858;27;45266;-70
2021/08/18 07:34:28;;;;;;;;;4.75;4.25;;;;;19.75;100.00;101760.44;5120878;27;45539;-69
2021/08/18 07:36:55;;;;;;;;;8.00;5.00;;;;;19.74;100.00;101748.97;5120482;27;46157;-71
2021/08/18 07:39:21;;;;;;;;;5.00;5.00;;;;;19.85;100.00;101749.41;5120478;27;45432;-69
2021/08/18 07:45:09;;;;;;;;;5.00;5.00;;;;;20.09;100.00;101752.09;5120946;27;45425;-69
2021/08/18 07:47:37;;;;;;;;;3.75;3.25;;;;;20.17;100.00;101757.97;5120818;27;45307;-70
2021/08/18 07:50:04;;;;;;;;;7.00;4.75;;;;;20.09;100.00;101752.94;5120791;27;45309;-70
2021/08/18 07:52:30;;;;;;;;;4.00;4.00;;;;;20.00;100.00;101748.00;5120382;27;45279;-70
2021/08/18 07:54:58;;;;;;;;;6.00;4.00;;;;;20.02;100.00;101747.94;5120605;27;45326;-70
2021/08/18 07:57:23;;;;;;;;;5.00;5.00;;;;;19.98;100.00;101741.03;5120388;27;46451;-70
2021/08/18 07:59:51;;;;;;;;;3.00;3.00;;;;;20.07;100.00;101756.56;5119935;27;45395;-69
2021/08/18 08:02:20;;;;;;;;;7.00;5.50;;;;;20.17;100.00;101752.69;5120203;27;45440;-69
2021/08/18 08:04:47;;;;;;;;;5.50;5.00;;;;;20.19;100.00;101751.69;5120308;27;45470;-70
2021/08/18 08:07:13;;;;;;;;;5.50;5.00;;;;;20.22;100.00;101756.00;5119563;27;46442;-69
2021/08/18 08:09:38;;;;;;;;;5.00;5.00;;;;;20.15;100.00;101749.22;5120348;27;45319;-70
2021/08/18 08:15:26;;;;;;;;;5.75;5.00;;;;;20.10;100.00;101754.66;5120358;27;45319;-70
2021/08/18 08:17:51;;;;;;;;;4.75;4.00;;;;;20.16;100.00;101745.66;5119850;27;46941;-70
2021/08/18 08:20:16;;;;;;;;;4.50;4.00;;;;;20.27;100.00;101754.03;5120191;27;45253;-70
2021/08/18 08:22:42;;;;;;;;;4.00;4.00;;;;;20.29;100.00;101760.16;5101488;27;45360;-69
2021/08/18 08:25:10;;;;;;;;;6.00;6.00;;;;;20.23;100.00;101756.88;5120013;27;45432;-71
2021/08/18 08:27:36;;;;;;;;;5.00;4.00;;;;;20.11;100.00;101743.13;5101573;27;46496;-70
2021/08/18 08:30:01;;;;;;;;;4.75;4.25;;;;;20.19;100.00;101746.38;5119576;27;45345;-70
2021/08/18 08:32:26;;;;;;;;;4.50;4.00;;;;;20.24;100.00;101753.28;5101334;27;45359;-72
2021/08/18 08:34:52;;;;;;;;;6.75;6.00;;;;;20.20;100.00;101747.25;5119784;27;45310;-71
2021/08/18 08:37:18;;;;;;;;;6.25;5.50;;;;;20.22;100.00;101745.41;5119814;27;46317;-70
2021/08/18 08:39:44;;;;;;;;;4.00;4.00;;;;;20.40;100.00;101763.31;5119533;27;45435;-70
2021/08/18 08:45:32;;;;;;;;;6.25;4.75;;;;;20.90;100.00;101752.44;5119729;27;45366;-71
2021/08/18 08:47:57;;;;;;;;;4.75;3.50;;;;;21.27;100.00;101753.56;5119451;27;46617;-71
2021/08/18 08:50:23;;;;;;;;;7.25;6.00;;;;;21.61;100.00;101759.19;5119227;27;45281;-71
2021/08/18 08:52:48;;;;;;;;;8.25;5.00;;;;;21.77;100.00;101756.72;5119498;27;45455;-71
2021/08/18 08:55:14;;;;;;;;;7.00;6.00;;;;;21.91;100.00;101758.72;5119673;27;45431;-70
2021/08/18 08:57:50;;;;;;;;;6.00;5.25;;;;;22.13;100.00;101766.63;5119429;27;46100;-70
2021/08/18 09:00:15;;;;;;;;;5.00;5.00;;;;;22.28;100.00;101758.81;5119073;27;45297;-70
2021/08/18 09:02:41;;;;;;;;;7.00;7.00;;;;;22.42;100.00;101767.94;5119205;27;45514;-70
2021/08/18 09:05:07;;;;;;;;;5.25;4.75;;;;;22.50;100.00;101763.13;5119287;27;45475;-70
2021/08/18 09:07:32;;;;;;;;;4.00;3.00;;;;;22.50;100.00;101755.13;5119073;27;46574;-70
2021/08/18 09:16:37;;;;;;;;;4.00;4.00;;;;;22.72;100.00;101754.97;5119268;27;45354;-69
2021/08/18 09:19:02;;;;;;;;;6.00;5.25;;;;;22.79;100.00;101762.56;5117851;27;46296;-71
2021/08/18 09:21:36;;;;;;;;;6.00;5.00;;;;;22.79;100.00;101761.69;5118985;27;45352;-71
2021/08/18 09:24:17;;;;;;;;;4.00;4.00;;;;;22.74;100.00;101759.28;5118872;27;45173;-71
2021/08/18 09:26:46;;;;;;;;;3.00;3.00;;;;;22.68;100.00;101770.22;5119178;27;45433;-71
2021/08/18 09:29:12;;;;;;;;;3.75;3.00;;;;;22.54;100.00;101767.34;5118773;27;46313;-71
2021/08/18 09:31:38;;;;;;;;;2.50;2.50;;;;;22.36;100.00;101776.19;5118870;27;45417;-71
2021/08/18 09:34:10;;;;;;;;;3.50;3.00;;;;;22.21;100.00;101772.47;5119006;27;45438;-71
2021/08/18 09:36:35;;;;;;;;;2.75;2.75;;;;;22.03;100.00;101760.84;5119073;27;45449;-71
2021/08/18 09:39:26;;;;;;;;;2.00;2.00;;;;;22.05;100.00;101774.97;5118959;27;46510;-71
2021/08/18 09:41:52;;;;;;;;;2.75;2.50;;;;;22.02;100.00;101775.06;5118923;27;45514;-70
2021/08/18 09:44:21;;;;;;;;;2.00;2.00;;;;;21.97;100.00;101762.00;5118938;27;45442;-71
2021/08/18 09:47:05;;;;;;;;;3.00;3.00;;;;;21.96;100.00;101760.28;5118829;27;45387;-70
2021/08/18 09:49:33;;;;;;;;;4.00;4.00;;;;;22.05;100.00;101766.13;5118627;27;46318;-70
2021/08/18 09:51:59;;;;;;;;;3.00;3.00;;;;;22.16;100.00;101754.03;5118537;27;45438;-71
2021/08/18 09:54:36;;;;;;;;;4.00;4.00;;;;;22.39;100.00;101757.44;5118592;27;45256;-70
2021/08/18 09:57:07;;;;;;;;;5.25;4.00;;;;;22.56;100.00;101749.50;5118950;27;45349;-71
2021/08/18 09:59:33;;;;;;;;;6.00;6.00;;;;;22.77;100.00;101744.94;5118461;27;45506;-70
2021/08/18 10:02:02;;;;;;;;;3.00;3.00;;;;;23.09;100.00;101751.38;5118364;27;45503;-70
2021/08/18 10:04:27;;;;;;;;;4.25;4.00;;;;;23.75;100.00;101749.69;5118654;27;45459;-70
2021/08/18 10:06:56;;;;;;;;;5.00;5.00;;;;;24.63;100.00;101735.94;5118890;27;45333;-69
2021/08/18 10:09:21;;;;;;;;;5.00;4.00;;;;;25.21;100.00;101743.28;5118585;27;46681;-69
2021/08/18 10:11:47;;;;;;;;;6.00;5.50;;;;;25.20;100.00;101751.41;5099707;27;46254;-69
2021/08/18 10:14:13;;;;;;;;;3.75;3.75;;;;;24.99;100.00;101745.50;5118232;27;45219;-68
2021/08/18 10:16:38;;;;;;;;;3.75;3.75;;;;;24.52;100.00;101722.38;5118488;27;45452;-69
2021/08/18 10:19:05;;;;;;;;;5.75;5.25;;;;;24.29;100.00;101734.34;5118227;27;46657;-70
2021/08/18 10:21:32;;;;;;;;;3.75;3.75;;;;;24.10;100.00;101753.13;5099219;27;45582;-70
2021/08/18 10:24:06;;;;;;;;;6.00;5.00;;;;;23.89;100.00;101756.97;5118065;27;45460;-70
2021/08/18 10:26:32;;;;;;;;;3.50;3.50;;;;;23.87;100.00;101753.53;5118178;27;45716;-70
2021/08/18 10:29:04;;;;;;;;;4.00;3.75;;;;;24.01;100.00;101744.78;5118501;27;46253;-70
2021/08/18 10:31:51;;;;;;;;;4.00;3.00;;;;;24.29;100.00;101746.84;5121462;27;45417;-70
2021/08/18 10:34:22;;;;;;;;;4.75;4.75;;;;;24.66;100.00;101734.91;5121579;27;45420;-70
2021/08/18 10:36:54;;;;;;;;;6.75;5.50;;;;;24.91;100.00;101737.91;5121789;27;45367;-69
2021/08/18 10:39:19;;;;;;;;;6.00;5.00;;;;;25.03;100.00;101739.88;5121491;27;46346;-69
2021/08/18 10:42:03;;;;;;;;;5.50;5.00;;;;;25.14;100.00;101733.06;5121355;27;45294;-69
2021/08/18 10:44:35;;;;;;;;;6.75;6.75;;;;;25.06;100.00;101725.47;5121633;27;45262;-70
2021/08/18 10:47:13;;;;;;;;;5.25;5.25;;;;;24.93;100.00;101732.47;5121820;27;45349;-68
2021/08/18 10:49:39;;;;;;;;;4.00;4.00;;;;;24.77;100.00;101721.81;5120922;27;46904;-69
2021/08/18 10:52:05;;;;;;;;;7.25;5.75;;;;;24.63;100.00;101717.25;5121144;27;45342;-68
2021/08/18 10:54:30;;;;;;;;;5.00;5.00;;;;;24.66;100.00;101721.56;5121287;27;45392;-69
2021/08/18 10:56:58;;;;;;;;;6.00;5.00;;;;;24.74;100.00;101717.53;5121312;27;45220;-68
2021/08/18 10:59:35;;;;;;;;;8.00;7.25;;;;;24.86;100.00;101718.59;5120777;27;46246;-68
2021/08/18 11:02:07;;;;;;;;;8.00;6.25;;;;;24.93;100.00;101719.97;5120913;27;45463;-69
2021/08/18 11:04:49;;;;;;;;;6.75;6.25;;;;;24.95;100.00;101717.22;5121105;27;45361;-69
2021/08/18 11:07:16;;;;;;;;;8.75;6.00;;;;;24.99;100.00;101716.09;5121365;27;45294;-69
2021/08/18 11:09:50;;;;;;;;;6.50;6.50;;;;;24.99;100.00;101714.31;5121197;27;45281;-69
2021/08/18 11:12:33;;;;;;;;;8.50;7.75;;;;;25.03;100.00;101709.63;5121395;27;45292;-69
2021/08/18 11:15:02;;;;;;;;;8.75;7.50;;;;;25.03;100.00;101705.16;5120538;27;45287;-68
2021/08/18 11:17:28;;;;;;;;;9.00;8.75;;;;;25.14;100.00;101698.31;5120143;27;45649;-69
2021/08/18 11:19:54;;;;;;;;;9.25;9.25;;;;;25.25;100.00;101695.84;5120305;27;46575;-67
2021/08/18 11:22:20;;;;;;;;;8.50;7.50;;;;;25.34;100.00;101700.63;5120054;27;45584;-68
2021/08/18 11:24:46;;;;;;;;;9.25;8.75;;;;;25.39;100.00;101703.91;5120640;27;45338;-68
2021/08/18 11:27:17;;;;;;;;;7.75;7.75;;;;;25.45;100.00;101708.84;5120789;27;45302;-68
2021/08/18 11:29:43;;;;;;;;;9.50;9.00;;;;;25.48;100.00;101705.13;5120390;27;45740;-68
2021/08/18 11:32:09;;;;;;;;;9.50;9.50;;;;;25.41;100.00;101695.78;5120506;27;45401;-67
2021/08/18 11:34:37;;;;;;;;;8.00;8.00;;;;;25.36;100.00;101701.41;5120111;27;45602;-67
2021/08/18 11:37:08;;;;;;;;;10.75;9.00;;;;;25.31;100.00;101701.66;5120108;27;45338;-68
2021/08/18 11:39:39;;;;;;;;;9.25;8.25;;;;;25.31;100.00;101708.81;5120259;27;46636;-66
2021/08/18 11:42:14;;;;;;;;;10.25;9.75;;;;;25.38;100.00;101702.19;5119340;27;45457;-67
2021/08/18 11:44:42;;;;;;;;;8.75;8.50;;;;;25.58;100.00;101704.50;5120428;27;45231;-67
2021/08/18 11:47:10;;;;;;;;;9.50;8.75;;;;;25.67;100.00;101710.22;5120157;27;45505;-67
2021/08/18 11:49:37;;;;;;;;;10.75;9.25;;;;;25.57;100.00;101701.88;5119789;27;47192;-68
2021/08/18 11:52:06;;;;;;;;;11.00;10.00;;;;;25.48;100.00;101700.66;5119985;27;45508;-68
2021/08/18 11:54:32;;;;;;;;;9.00;8.25;;;;;25.32;100.00;101698.03;5120398;27;45334;-68
2021/08/18 11:57:00;;;;;;;;;11.25;8.75;;;;;25.10;100.00;101699.44;5101723;27;45610;-68
2021/08/18 11:59:29;;;;;;;;;7.25;7.25;;;;;24.90;100.00;101695.25;5119987;27;47408;-68
2021/08/18 12:01:55;;;;;;;;;8.00;8.00;;;;;24.72;100.00;101683.84;5119833;27;45255;-68
2021/08/18 12:04:22;;;;;;;;;8.50;8.00;;;;;24.67;100.00;101688.59;5119920;27;45285;-68
2021/08/18 12:07:13;;;;;;;;;8.25;8.00;;;;;24.77;100.00;101692.44;5119734;27;45273;-68
2021/08/18 12:10:14;;;;;;;;;9.50;9.00;;;;;24.82;100.00;101684.13;5120134;27;45307;-68
2021/08/18 12:12:40;;;;;;;;;10.25;8.75;;;;;25.07;100.00;101683.56;5119320;27;45370;-67
2021/08/18 12:15:13;;;;;;;;;9.25;9.00;;;;;25.36;100.00;101685.38;5120125;27;45291;-67
2021/08/18 12:17:40;;;;;;;;;7.00;6.00;;;;;25.80;100.00;101681.75;5120145;27;45443;-67
2021/08/18 12:20:35;;;;;;;;;8.75;7.50;;;;;26.09;100.00;101680.78;5119228;27;45487;-68